Time;durP1;ratioP1;P1;durP2;ratioP2;P2;SDS_P1;SDS_P2;PMS_P1;PMS_P2;Temp;Humidity;BMP_temperature;BMP_pressure;BME280_temperature;BME280_humidity;BME280_pressure;Samples;Min_cycle;Max_cycle;Signal;HPM_P1;HPM_P2
2022/04/19 00:00:37;;;;;;;19.93;11.63;;;;;;;19.05;36.69;101626.25;5048524;28;20082;-73
2022/04/19 00:03:06;;;;;;;17.27;9.30;;;;;;;18.88;37.58;101625.94;5049562;28;20392;-72
2022/04/19 00:05:32;;;;;;;22.60;11.20;;;;;;;18.84;37.13;101622.50;5048367;28;20021;-72
2022/04/19 00:07:59;;;;;;;18.47;10.07;;;;;;;18.70;37.60;101617.63;5049032;28;20021;-72
2022/04/19 00:10:28;;;;;;;20.23;11.23;;;;;;;18.71;37.37;101618.50;5049299;28;20025;-72
2022/04/19 00:12:57;;;;;;;17.63;9.80;;;;;;;18.94;38.29;101616.00;5049255;28;20032;-72
2022/04/19 00:15:27;;;;;;;18.50;10.80;;;;;;;18.47;37.76;101613.91;5050614;28;20446;-72
2022/04/19 00:17:52;;;;;;;19.67;10.47;;;;;;;18.60;38.81;101614.41;5048854;28;20078;-72
2022/04/19 00:20:17;;;;;;;17.77;10.63;;;;;;;18.77;37.71;101611.22;5049460;28;20099;-72
2022/04/19 00:22:43;;;;;;;19.27;10.50;;;;;;;18.45;38.14;101610.47;5049804;28;20377;-72
2022/04/19 00:25:08;;;;;;;20.50;10.37;;;;;;;18.50;38.48;101622.69;5049035;28;20033;-72
2022/04/19 00:27:34;;;;;;;17.07;10.53;;;;;;;18.87;38.35;101608.28;5048383;28;20021;-72
2022/04/19 00:30:01;;;;;;;22.87;11.40;;;;;;;19.10;37.74;101608.41;5052495;28;20473;-72
2022/04/19 00:32:27;;;;;;;15.40;9.90;;;;;;;19.04;38.31;101605.09;5052965;28;20123;-72
2022/04/19 00:34:52;;;;;;;18.13;11.00;;;;;;;18.63;37.92;101600.22;5052984;28;20085;-72
2022/04/19 00:37:21;;;;;;;17.60;10.20;;;;;;;18.57;38.71;101603.03;5052725;28;20111;-72
2022/04/19 00:39:47;;;;;;;22.30;11.27;;;;;;;18.37;38.53;101596.59;5053066;28;20021;-73
2022/04/19 00:42:12;;;;;;;23.40;13.10;;;;;;;18.46;38.58;101606.03;5052807;28;20507;-72
2022/04/19 00:44:39;;;;;;;19.90;11.83;;;;;;;18.60;39.03;101597.66;5052186;28;20029;-72
2022/04/19 00:47:09;;;;;;;20.97;11.73;;;;;;;18.48;38.67;101594.47;5051954;28;20025;-72
2022/04/19 00:49:40;;;;;;;16.53;10.00;;;;;;;18.67;38.50;101601.84;5036106;28;20028;-72
2022/04/19 00:52:07;;;;;;;15.13;9.50;;;;;;;18.54;38.52;101590.78;5052457;28;20112;-72
2022/04/19 00:54:32;;;;;;;21.63;11.17;;;;;;;18.60;39.72;101593.25;5035060;28;20021;-72
2022/04/19 00:56:58;;;;;;;20.03;11.00;;;;;;;18.35;38.85;101590.47;5052117;28;20109;-72
2022/04/19 00:59:24;;;;;;;18.80;10.30;;;;;;;18.55;39.05;101589.00;5053790;28;20025;-72
2022/04/19 01:01:50;;;;;;;17.87;10.17;;;;;;;18.36;38.73;101583.41;5051134;28;20356;-72
2022/04/19 01:04:16;;;;;;;18.63;10.83;;;;;;;18.24;38.81;101590.78;5052383;28;20032;-72
2022/04/19 01:06:41;;;;;;;15.07;9.93;;;;;;;18.33;38.92;101583.47;5053255;28;20021;-72
2022/04/19 01:09:07;;;;;;;15.90;9.67;;;;;;;18.25;38.78;101583.75;5051634;28;20431;-72
2022/04/19 01:14:19;;;;;;;19.63;10.67;;;;;;;18.09;39.35;101584.19;5053751;28;20039;-72
2022/04/19 01:16:45;;;;;;;18.97;9.87;;;;;;;18.16;39.41;101578.72;5052211;28;20017;-72
2022/04/19 01:19:15;;;;;;;18.20;10.83;;;;;;;17.95;39.61;101578.44;5053419;28;20503;-72
2022/04/19 01:21:48;;;;;;;20.37;11.57;;;;;;;17.84;39.51;101577.84;5051424;28;20138;-72
2022/04/19 01:24:15;;;;;;;19.50;10.73;;;;;;;17.99;39.09;101582.72;5052614;28;20021;-72
2022/04/19 01:26:41;;;;;;;17.30;10.50;;;;;;;17.89;40.25;101578.59;5052528;28;20024;-72
2022/04/19 01:29:07;;;;;;;20.17;10.30;;;;;;;17.81;39.39;101582.31;5052624;28;20511;-72
2022/04/19 01:31:33;;;;;;;19.10;9.80;;;;;;;18.09;39.26;101573.63;5053211;28;20384;-72
2022/04/19 01:33:59;;;;;;;16.40;9.67;;;;;;;17.81;39.87;101584.94;5052995;28;20028;-72
2022/04/19 01:36:24;;;;;;;18.23;10.03;;;;;;;17.89;39.74;101576.81;5052467;28;20028;-72
2022/04/19 01:38:51;;;;;;;18.80;10.20;;;;;;;17.68;40.27;101583.59;5050996;28;20039;-72
2022/04/19 01:41:16;;;;;;;19.00;10.27;;;;;;;17.91;39.59;101584.69;5051881;28;20029;-72
2022/04/19 01:43:41;;;;;;;14.13;8.77;;;;;;;17.97;39.90;101581.91;5050344;28;20487;-72
2022/04/19 01:46:07;;;;;;;18.17;10.47;;;;;;;17.91;39.62;101576.75;5051587;28;20071;-72
2022/04/19 01:48:32;;;;;;;18.67;11.07;;;;;;;17.79;39.63;101577.97;5034674;28;20388;-72
2022/04/19 01:50:57;;;;;;;22.53;10.40;;;;;;;17.90;39.73;101580.31;5050494;28;20060;-72
2022/04/19 01:53:23;;;;;;;21.50;10.73;;;;;;;17.67;40.42;101580.94;5052834;28;20021;-72
2022/04/19 01:55:48;;;;;;;20.20;11.07;;;;;;;17.54;40.61;101577.78;5052117;28;20370;-72
2022/04/19 01:58:13;;;;;;;19.53;10.67;;;;;;;17.72;39.68;101573.78;5050605;28;20443;-72
2022/04/19 02:00:38;;;;;;;21.30;11.10;;;;;;;17.53;40.44;101576.94;5050597;28;20438;-71
2022/04/19 02:03:04;;;;;;;17.93;9.73;;;;;;;17.57;41.21;101573.31;5051117;28;20502;-72
2022/04/19 02:05:29;;;;;;;22.60;11.80;;;;;;;17.86;40.38;101568.09;5051507;28;20021;-73
2022/04/19 02:07:55;;;;;;;19.37;10.93;;;;;;;17.35;41.20;101573.03;5050908;28;20024;-72
2022/04/19 02:10:20;;;;;;;23.43;12.53;;;;;;;17.46;41.49;101570.94;5051224;28;20044;-72
2022/04/19 02:12:46;;;;;;;21.73;12.03;;;;;;;17.16;41.79;101571.75;5049573;28;20029;-72
2022/04/19 02:15:14;;;;;;;23.53;12.40;;;;;;;17.53;41.28;101566.38;5051116;28;20078;-72
2022/04/19 02:17:47;;;;;;;19.20;10.97;;;;;;;17.66;41.48;101566.88;5050487;28;20021;-72
2022/04/19 02:20:14;;;;;;;22.33;12.23;;;;;;;17.23;42.77;101573.34;5051529;28;20115;-72
2022/04/19 02:22:41;;;;;;;20.57;11.87;;;;;;;17.83;41.37;101568.19;5050297;28;20021;-72
2022/04/19 02:25:07;;;;;;;23.77;13.50;;;;;;;17.31;42.03;101571.38;5050650;28;20021;-74
2022/04/19 02:27:33;;;;;;;23.67;11.73;;;;;;;17.49;41.62;101558.53;5051087;28;20021;-72
2022/04/19 02:30:04;;;;;;;20.47;11.87;;;;;;;17.29;42.64;101567.88;5052053;28;20017;-72
2022/04/19 02:32:30;;;;;;;25.77;14.67;;;;;;;17.34;42.45;101570.38;5049920;28;20055;-72
2022/04/19 02:34:57;;;;;;;25.93;14.53;;;;;;;17.48;42.76;101556.84;5050518;28;20056;-72
2022/04/19 02:37:22;;;;;;;26.93;14.10;;;;;;;17.73;41.93;101557.84;5050548;28;20021;-72
2022/04/19 02:39:49;;;;;;;22.87;12.83;;;;;;;17.66;42.40;101556.31;5049306;28;20472;-72
2022/04/19 02:42:15;;;;;;;26.23;14.17;;;;;;;17.60;42.25;101551.22;5051808;28;20028;-72
2022/04/19 02:44:40;;;;;;;23.17;12.80;;;;;;;17.83;41.90;101552.31;5049948;28;20135;-72
2022/04/19 02:47:06;;;;;;;20.93;12.03;;;;;;;17.95;41.60;101552.00;5049676;28;20095;-72
2022/04/19 02:49:37;;;;;;;26.17;13.90;;;;;;;17.79;42.12;101557.69;5050229;28;20028;-72
2022/04/19 02:52:04;;;;;;;23.63;12.77;;;;;;;17.87;41.77;101553.97;5051217;28;20029;-72
2022/04/19 02:54:29;;;;;;;24.97;13.87;;;;;;;17.98;41.59;101557.19;5050780;28;20108;-72
2022/04/19 02:56:55;;;;;;;23.23;13.33;;;;;;;17.86;41.19;101558.41;5050140;28;20109;-72
2022/04/19 02:59:20;;;;;;;21.37;13.47;;;;;;;17.73;41.66;101552.56;5051445;28;20029;-72
2022/04/19 03:01:45;;;;;;;23.97;13.17;;;;;;;17.85;41.25;101555.78;5050748;28;20029;-72
2022/04/19 03:04:11;;;;;;;22.40;11.47;;;;;;;17.76;41.82;101557.78;5050304;28;20497;-72
2022/04/19 03:06:36;;;;;;;24.17;12.97;;;;;;;17.84;40.78;101554.91;5050948;28;20121;-72
2022/04/19 03:09:02;;;;;;;21.23;12.97;;;;;;;17.79;41.09;101557.69;5049594;28;20031;-72
2022/04/19 03:11:28;;;;;;;21.57;11.43;;;;;;;17.65;40.88;101559.84;5051415;28;20564;-73
2022/04/19 03:13:54;;;;;;;23.17;12.87;;;;;;;17.56;41.27;101554.84;5050597;28;20021;-72
2022/04/19 03:16:19;;;;;;;24.73;13.33;;;;;;;17.45;41.62;101556.00;5049563;28;20056;-72
2022/04/19 03:18:44;;;;;;;20.37;12.10;;;;;;;17.20;41.36;101554.91;5049544;28;20481;-72
2022/04/19 03:21:11;;;;;;;21.53;12.87;;;;;;;17.27;41.83;101559.16;5051055;28;20148;-72
2022/04/19 03:29:05;;;;;;;20.53;11.43;;;;;;;17.08;41.77;101554.34;5050803;28;20124;-72
2022/04/19 03:31:32;;;;;;;21.77;12.57;;;;;;;17.07;41.56;101552.59;5050956;28;20024;-72
2022/04/19 03:33:57;;;;;;;22.13;13.10;;;;;;;16.93;41.91;101552.09;5049651;28;20020;-72
2022/04/19 03:36:22;;;;;;;21.77;12.30;;;;;;;16.97;42.40;101553.75;5049179;28;20025;-74
2022/04/19 03:38:48;;;;;;;20.67;12.77;;;;;;;16.82;43.22;101552.31;5049571;28;20063;-72
2022/04/19 03:41:13;;;;;;;21.50;12.77;;;;;;;16.68;42.63;101554.41;5049808;28;20112;-72
2022/04/19 03:43:41;;;;;;;23.53;12.93;;;;;;;16.89;42.45;101555.72;5048488;28;20029;-72
2022/04/19 03:46:06;;;;;;;21.30;12.87;;;;;;;16.96;41.97;101554.66;5050861;28;20392;-72
2022/04/19 03:48:32;;;;;;;21.00;11.70;;;;;;;17.04;42.07;101557.09;5050773;28;20024;-72
2022/04/19 03:50:58;;;;;;;22.67;13.13;;;;;;;16.85;42.44;101551.38;5048752;28;20021;-72
2022/04/19 03:53:23;;;;;;;17.80;10.17;;;;;;;17.00;42.76;101553.66;5049786;28;20025;-73
2022/04/19 03:55:48;;;;;;;22.23;12.17;;;;;;;16.78;43.85;101551.50;5048872;28;20025;-72
2022/04/19 03:58:14;;;;;;;24.47;11.77;;;;;;;16.87;41.75;101541.63;5050256;28;20021;-73
2022/04/19 04:00:39;;;;;;;20.80;12.33;;;;;;;17.29;41.14;101536.19;5050374;28;20135;-72
2022/04/19 04:03:06;;;;;;;22.87;12.07;;;;;;;17.21;40.34;101544.31;5049921;28;20397;-72
2022/04/19 04:05:32;;;;;;;21.53;12.23;;;;;;;17.38;40.91;101541.22;5052265;28;20051;-73
2022/04/19 04:07:58;;;;;;;16.37;9.83;;;;;;;17.38;41.28;101541.22;5053372;28;20029;-72
2022/04/19 04:10:23;;;;;;;18.57;10.40;;;;;;;17.50;39.79;101539.16;5054937;28;20624;-72
2022/04/19 04:12:49;;;;;;;18.57;10.57;;;;;;;17.37;40.20;101539.47;5053794;28;20135;-72
2022/04/19 04:15:14;;;;;;;17.97;11.30;;;;;;;17.43;40.06;101539.31;5054776;28;20021;-72
2022/04/19 04:17:40;;;;;;;18.33;10.57;;;;;;;17.46;40.08;101535.72;5052836;28;20158;-72
2022/04/19 04:20:06;;;;;;;15.70;9.70;;;;;;;17.39;40.82;101547.38;5053924;28;20388;-72
2022/04/19 04:22:31;;;;;;;18.97;10.97;;;;;;;17.08;40.72;101543.75;5053004;28;20021;-72
2022/04/19 04:24:57;;;;;;;18.87;10.53;;;;;;;17.23;39.51;101549.56;5052075;28;20040;-72
2022/04/19 04:27:22;;;;;;;19.23;9.77;;;;;;;17.06;39.96;101553.53;5053388;28;20027;-72
2022/04/19 04:29:48;;;;;;;16.13;9.80;;;;;;;17.18;40.80;101554.09;5035817;28;20555;-72
2022/04/19 04:32:13;;;;;;;19.03;10.67;;;;;;;17.09;40.11;101556.06;5052462;28;20116;-72
2022/04/19 04:34:38;;;;;;;18.13;10.37;;;;;;;17.16;40.30;101561.19;5052652;28;20021;-72
2022/04/19 04:37:04;;;;;;;15.53;9.93;;;;;;;16.92;40.78;101560.91;5053025;28;20063;-72
2022/04/19 04:39:29;;;;;;;19.60;10.23;;;;;;;16.79;40.69;101555.91;5051939;28;20029;-71
2022/04/19 04:41:55;;;;;;;18.57;10.97;;;;;;;16.84;40.49;101560.19;5053805;28;20040;-72
2022/04/19 04:44:20;;;;;;;14.90;8.87;;;;;;;16.77;40.84;101557.72;5052930;28;20028;-72
2022/04/19 04:49:35;;;;;;;15.27;8.80;;;;;;;17.16;40.63;101562.06;5054364;28;20043;-72
2022/04/19 04:52:01;;;;;;;18.77;10.30;;;;;;;16.96;39.74;101565.22;5052733;28;20052;-72
2022/04/19 04:54:26;;;;;;;17.73;9.70;;;;;;;16.93;40.68;101562.66;5053170;28;20476;-71
2022/04/19 04:56:52;;;;;;;19.13;9.20;;;;;;;16.85;40.79;101568.06;5052296;28;20025;-72
2022/04/19 04:59:18;;;;;;;15.00;9.53;;;;;;;16.64;40.71;101564.19;5052730;28;20024;-72
2022/04/19 05:01:43;;;;;;;17.03;9.50;;;;;;;16.99;40.62;101562.47;5052734;28;20076;-72
2022/04/19 05:04:08;;;;;;;19.10;9.90;;;;;;;17.08;39.63;101564.91;5052513;28;20036;-71
2022/04/19 05:06:34;;;;;;;17.57;9.13;;;;;;;17.06;40.58;101572.00;5053469;28;20389;-72
2022/04/19 05:08:59;;;;;;;17.50;10.23;;;;;;;17.21;40.50;101569.84;5051633;28;20020;-72
2022/04/19 05:11:24;;;;;;;16.13;10.13;;;;;;;17.33;39.29;101566.03;5052526;28;20017;-71
2022/04/19 05:13:50;;;;;;;13.07;7.97;;;;;;;17.48;39.95;101567.41;5053209;28;20025;-72
2022/04/19 05:16:15;;;;;;;16.77;9.63;;;;;;;17.34;39.86;101568.63;5052960;28;20032;-72
2022/04/19 05:18:40;;;;;;;14.97;9.70;;;;;;;17.23;40.79;101573.34;5051912;28;20025;-72
2022/04/19 05:21:07;;;;;;;17.57;10.50;;;;;;;17.18;40.77;101576.09;5052258;28;20205;-71
2022/04/19 05:23:32;;;;;;;18.87;11.03;;;;;;;17.40;40.07;101575.53;5051972;28;20025;-71
2022/04/19 05:25:57;;;;;;;16.07;9.67;;;;;;;17.44;40.13;101567.47;5053452;28;20040;-72
2022/04/19 05:28:23;;;;;;;19.07;9.73;;;;;;;17.68;39.70;101570.38;5052781;28;20036;-72
2022/04/19 05:30:48;;;;;;;15.37;9.50;;;;;;;17.55;40.64;101574.25;5051475;28;20424;-72
2022/04/19 05:33:13;;;;;;;16.77;9.37;;;;;;;17.89;40.01;101573.31;5052161;28;20033;-73
2022/04/19 05:35:39;;;;;;;17.40;9.87;;;;;;;17.79;38.92;101573.56;5052340;28;20092;-72
2022/04/19 05:38:04;;;;;;;18.37;10.03;;;;;;;17.67;39.33;101573.03;5052110;28;20025;-72
2022/04/19 05:40:30;;;;;;;18.50;9.97;;;;;;;18.00;38.34;101575.66;5051666;28;20021;-72
2022/04/19 05:42:55;;;;;;;20.47;11.10;;;;;;;17.74;38.44;101583.41;5052212;28;20033;-73
2022/04/19 05:45:21;;;;;;;14.07;8.37;;;;;;;17.74;38.89;101585.19;5053293;28;20074;-72
2022/04/19 05:47:46;;;;;;;15.40;9.33;;;;;;;17.91;37.85;101582.03;5051461;28;20029;-73
2022/04/19 05:50:11;;;;;;;18.10;9.33;;;;;;;17.87;36.00;101581.25;5052483;28;20499;-72
2022/04/19 05:52:37;;;;;;;15.03;8.70;;;;;;;18.19;35.99;101581.25;5051168;28;20035;-72
2022/04/19 05:55:03;;;;;;;17.20;8.97;;;;;;;18.43;35.34;101585.81;5051714;28;20040;-73
2022/04/19 05:57:31;;;;;;;16.23;9.03;;;;;;;18.64;34.96;101586.03;5050861;28;20031;-72
2022/04/19 05:59:57;;;;;;;15.93;8.80;;;;;;;19.02;34.53;101594.56;5035109;28;20032;-74
2022/04/19 06:05:07;;;;;;;15.03;9.70;;;;;;;19.22;33.97;101585.94;5050942;28;20507;-72
2022/04/19 06:07:32;;;;;;;12.90;8.37;;;;;;;19.43;33.67;101583.47;5051205;28;20025;-72
2022/04/19 06:09:58;;;;;;;13.90;7.57;;;;;;;19.26;33.23;101592.00;5050994;28;20021;-73
2022/04/19 06:12:25;;;;;;;15.87;8.93;;;;;;;19.07;33.48;101587.34;5034052;28;20416;-72
2022/04/19 06:14:50;;;;;;;14.27;9.07;;;;;;;19.30;33.20;101583.91;5050625;28;20492;-72
2022/04/19 06:17:21;;;;;;;14.37;8.10;;;;;;;19.54;32.65;101591.91;5052670;28;20021;-73
2022/04/19 06:19:46;;;;;;;15.67;8.60;;;;;;;19.33;32.66;101588.22;5050561;28;20027;-73
2022/04/19 06:22:13;;;;;;;14.60;8.27;;;;;;;19.69;32.75;101589.59;5051103;28;20037;-72
2022/04/19 06:24:38;;;;;;;16.63;9.40;;;;;;;19.86;32.53;101591.69;5049644;28;20160;-73
2022/04/19 06:27:04;;;;;;;11.97;7.53;;;;;;;19.99;32.05;101592.97;5052075;28;20100;-73
2022/04/19 06:29:32;;;;;;;15.30;8.33;;;;;;;20.36;31.49;101591.56;5052281;28;20021;-73
2022/04/19 06:31:58;;;;;;;13.13;7.90;;;;;;;20.19;31.29;101591.34;5033221;28;20051;-74
2022/04/19 06:34:23;;;;;;;14.60;8.10;;;;;;;19.96;31.47;101593.94;5051012;28;20021;-74
2022/04/19 06:36:49;;;;;;;14.37;8.17;;;;;;;19.72;32.42;101600.13;5050507;28;20035;-74
2022/04/19 06:39:14;;;;;;;16.60;9.00;;;;;;;19.79;32.13;101607.78;5050191;28;20044;-73
2022/04/19 06:41:41;;;;;;;15.43;8.37;;;;;;;19.75;32.36;101600.84;5049911;28;20329;-73
2022/04/19 06:44:08;;;;;;;14.20;8.70;;;;;;;19.65;32.71;101605.63;5051904;28;20477;-74
2022/04/19 06:46:34;;;;;;;15.53;8.47;;;;;;;19.54;32.45;101613.09;5049622;28;20032;-73
2022/04/19 06:48:59;;;;;;;15.97;8.30;;;;;;;20.19;31.60;101609.91;5051656;28;20031;-74
2022/04/19 06:51:28;;;;;;;14.67;7.67;;;;;;;19.99;32.00;101608.88;5050191;28;20108;-74
2022/04/19 06:53:53;;;;;;;12.23;7.57;;;;;;;20.02;31.93;101614.06;5049100;28;20140;-73
2022/04/19 06:56:19;;;;;;;16.43;8.33;;;;;;;19.45;32.94;101614.31;5052044;28;20104;-74
2022/04/19 06:58:44;;;;;;;14.80;8.20;;;;;;;20.37;31.96;101614.50;5050051;28;20036;-73
2022/04/19 07:01:10;;;;;;;14.87;8.40;;;;;;;20.92;31.12;101611.47;5049904;28;20025;-74
2022/04/19 07:03:36;;;;;;;16.83;8.00;;;;;;;21.35;30.38;101617.63;5049801;28;20025;-73
2022/04/19 07:06:03;;;;;;;13.90;8.10;;;;;;;20.89;30.68;101616.06;5050077;28;20021;-73
2022/04/19 07:08:29;;;;;;;13.43;7.83;;;;;;;20.61;30.89;101622.47;5050723;28;20116;-73
2022/04/19 07:10:55;;;;;;;14.60;8.37;;;;;;;21.04;30.48;101625.19;5049884;28;20113;-74
2022/04/19 07:13:20;;;;;;;14.67;8.37;;;;;;;20.64;31.20;101622.31;5050141;28;20044;-74
2022/04/19 07:15:46;;;;;;;13.97;8.07;;;;;;;21.01;30.53;101620.88;5048833;28;20515;-74
2022/04/19 07:18:13;;;;;;;14.60;8.17;;;;;;;21.28;30.80;101623.28;5050019;28;20025;-73
2022/04/19 07:28:50;;;;;;;13.35;7.63;;;;;;;25.31;26.07;101615.41;5050302;28;20508;-73
2022/04/19 07:31:15;;;;;;;13.32;6.70;;;;;;;26.75;23.87;101621.59;5051205;28;20028;-74
2022/04/19 07:33:40;;;;;;;12.88;7.85;;;;;;;27.40;23.35;101619.94;5049364;28;20040;-74
2022/04/19 07:36:06;;;;;;;12.88;7.65;;;;;;;26.77;24.12;101624.16;5050476;28;20031;-74
2022/04/19 07:38:32;;;;;;;14.52;7.55;;;;;;;28.03;22.67;101619.19;5048647;28;20025;-73
2022/04/19 07:40:58;;;;;;;12.20;7.90;;;;;;;29.11;21.09;101624.69;5049354;28;20028;-74
2022/04/19 07:43:24;;;;;;;11.38;6.88;;;;;;;30.77;19.47;101628.66;5049328;28;20503;-74
2022/04/19 07:45:49;;;;;;;12.63;7.38;;;;;;;30.83;19.45;101621.88;5049144;28;20028;-74
2022/04/19 07:48:15;;;;;;;12.93;7.38;;;;;;;31.11;19.28;101620.44;5049607;28;20111;-74
2022/04/19 07:50:42;;;;;;;11.20;6.65;;;;;;;30.21;19.75;101622.41;5048676;28;20025;-74
2022/04/19 07:53:08;;;;;;;11.68;6.90;;;;;;;31.78;18.32;101619.16;5050984;28;20021;-74
2022/04/19 07:55:34;;;;;;;9.95;6.75;;;;;;;31.25;18.97;101619.25;5049238;28;20028;-74
2022/04/19 07:57:59;;;;;;;11.68;7.00;;;;;;;30.85;19.10;101615.38;5048762;28;20032;-74
2022/04/19 08:00:27;;;;;;;8.93;6.57;;;;;;;31.56;19.18;101614.75;5049417;28;20063;-74
2022/04/19 08:02:54;;;;;;;11.32;6.38;;;;;;;31.13;18.60;101613.94;5050016;28;20048;-74
2022/04/19 08:05:19;;;;;;;9.93;6.07;;;;;;;31.85;18.11;101618.59;5049332;28;20032;-74
2022/04/19 08:07:48;;;;;;;11.93;6.70;;;;;;;31.49;17.58;101619.00;5050188;28;20032;-73
2022/04/19 08:10:13;;;;;;;11.38;7.18;;;;;;;29.39;19.70;101625.31;5048674;28;20029;-72
2022/04/19 08:12:38;;;;;;;10.27;6.13;;;;;;;29.44;20.54;101617.69;5050078;28;20033;-73
2022/04/19 08:15:04;;;;;;;9.07;5.80;;;;;;;29.06;19.99;101624.19;5049301;28;20059;-73
2022/04/19 08:17:32;;;;;;;8.48;5.40;;;;;;;29.57;19.31;101628.38;5049739;28;20033;-72
2022/04/19 08:19:57;;;;;;;8.07;5.38;;;;;;;29.71;20.05;101630.00;5048998;28;20128;-73
2022/04/19 08:22:23;;;;;;;8.70;5.60;;;;;;;29.59;19.47;101627.28;5049090;28;20151;-73
2022/04/19 08:24:49;;;;;;;9.90;5.47;;;;;;;27.32;21.37;101624.09;5048096;28;20259;-73
2022/04/19 08:27:16;;;;;;;8.38;5.45;;;;;;;28.82;20.22;101630.44;5049199;28;20029;-73
2022/04/19 08:29:43;;;;;;;9.55;5.88;;;;;;;29.25;20.22;101634.41;5049602;28;20032;-73
2022/04/19 08:32:08;;;;;;;8.52;5.03;;;;;;;29.22;20.44;101630.13;5048521;28;20459;-73
2022/04/19 08:34:33;;;;;;;9.27;5.97;;;;;;;29.47;20.76;101627.38;5050089;28;20095;-72
2022/04/19 08:36:59;;;;;;;9.65;5.45;;;;;;;29.30;20.55;101629.53;5048779;28;20112;-73
2022/04/19 08:39:24;;;;;;;13.82;7.57;;;;;;;29.68;19.69;101624.84;5049446;28;20473;-73
2022/04/19 08:41:49;;;;;;;10.40;5.20;;;;;;;29.84;19.66;101625.34;5048627;28;20048;-72
2022/04/19 08:44:15;;;;;;;8.05;5.75;;;;;;;30.19;20.19;101618.97;5048864;28;20093;-73
2022/04/19 08:46:42;;;;;;;8.35;6.25;;;;;;;29.45;20.44;101625.66;5047889;28;20032;-73
2022/04/19 08:49:09;;;;;;;9.02;6.13;;;;;;;31.10;18.52;101626.81;5050599;28;20432;-73
2022/04/19 08:51:36;;;;;;;9.20;6.13;;;;;;;32.07;18.05;101622.97;5052308;28;20122;-72
2022/04/19 08:59:31;;;;;;;9.80;5.70;;;;;;;31.53;17.96;101617.72;5052936;28;20044;-73
2022/04/19 09:01:58;;;;;;;7.93;5.70;;;;;;;31.62;18.57;101619.63;5052169;28;20021;-72
2022/04/19 09:04:25;;;;;;;7.25;5.25;;;;;;;31.39;18.45;101623.47;5052194;28;20040;-73
2022/04/19 09:06:58;;;;;;;6.13;4.72;;;;;;;31.54;17.98;101615.88;5052390;28;20017;-72
2022/04/19 09:09:25;;;;;;;7.38;4.78;;;;;;;31.58;17.77;101625.44;5052241;28;20393;-72
2022/04/19 09:11:53;;;;;;;6.93;4.80;;;;;;;30.48;19.35;101617.63;5053109;28;20021;-72
2022/04/19 09:14:19;;;;;;;10.90;6.82;;;;;;;31.39;18.15;101615.38;5052794;28;20068;-72
2022/04/19 09:16:45;;;;;;;7.50;3.75;;;;;;;30.50;18.19;101616.50;5051592;28;20083;-72
2022/04/19 09:19:31;;;;;;;6.03;3.70;;;;;;;31.24;18.25;101610.31;5052253;28;20029;-72
2022/04/19 09:21:58;;;;;;;6.60;3.90;;;;;;;31.23;18.18;101602.31;5050346;28;20057;-72
2022/04/19 09:24:24;;;;;;;8.02;3.45;;;;;;;32.03;17.26;101600.75;5052027;28;20025;-72
2022/04/19 09:26:50;;;;;;;5.57;4.07;;;;;;;32.36;15.95;101604.13;5051363;28;20036;-73
2022/04/19 09:29:25;;;;;;;7.03;3.53;;;;;;;30.91;17.08;101604.09;5050835;28;20032;-72
2022/04/19 09:31:53;;;;;;;11.05;4.28;;;;;;;31.19;16.68;101609.84;5051527;28;20063;-73
2022/04/19 09:34:37;;;;;;;6.35;3.92;;;;;;;31.67;16.29;101610.28;5051769;28;20037;-72
2022/04/19 09:37:13;;;;;;;6.25;3.92;;;;;;;31.08;16.94;101601.81;5051523;28;20070;-73
2022/04/19 09:39:41;;;;;;;6.82;3.97;;;;;;;31.71;16.07;101601.78;5052967;28;20553;-72
2022/04/19 09:42:16;;;;;;;6.00;3.92;;;;;;;31.83;16.24;101599.81;5051037;28;20120;-72
2022/04/19 09:44:43;;;;;;;6.18;3.75;;;;;;;32.43;16.84;101601.72;5051206;28;20033;-72
2022/04/19 09:47:11;;;;;;;7.93;4.10;;;;;;;31.61;17.36;101601.75;5053000;28;20032;-72
2022/04/19 09:49:44;;;;;;;6.63;3.80;;;;;;;31.72;16.19;101602.63;5050320;28;20095;-72
2022/04/19 09:52:22;;;;;;;7.65;3.38;;;;;;;31.06;16.24;101592.97;5051602;28;20461;-73
2022/04/19 09:55:05;;;;;;;8.50;3.95;;;;;;;30.69;16.87;101593.38;5051055;28;20043;-72
2022/04/19 09:57:41;;;;;;;7.47;4.13;;;;;;;31.12;16.74;101592.47;5050463;28;20086;-72
2022/04/19 10:00:09;;;;;;;12.05;4.53;;;;;;;32.25;16.02;101586.19;5051381;28;20055;-72
2022/04/19 10:08:21;;;;;;;10.23;4.22;;;;;;;32.02;14.70;101581.97;5052608;28;20047;-72
2022/04/19 10:10:52;;;;;;;7.32;3.97;;;;;;;32.61;14.78;101589.19;5049985;28;20040;-73
2022/04/19 10:13:19;;;;;;;8.07;4.45;;;;;;;31.60;15.31;101585.66;5052492;28;20100;-73
2022/04/19 10:15:45;;;;;;;8.20;4.47;;;;;;;32.07;15.04;101590.53;5050529;28;20057;-73
2022/04/19 10:18:10;;;;;;;10.50;4.90;;;;;;;32.35;15.76;101588.06;5051789;28;20108;-73
2022/04/19 10:20:42;;;;;;;10.45;4.88;;;;;;;32.77;13.98;101587.81;5050419;28;20095;-74
2022/04/19 10:23:10;;;;;;;8.07;3.85;;;;;;;34.30;14.41;101587.63;5052066;28;20039;-72
2022/04/19 10:25:44;;;;;;;7.72;4.45;;;;;;;33.07;14.87;101594.03;5051686;28;20033;-72
2022/04/19 10:28:15;;;;;;;8.68;5.10;;;;;;;33.31;14.90;101590.91;5050968;28;20033;-73
2022/04/19 10:30:51;;;;;;;10.20;5.25;;;;;;;33.83;13.77;101579.63;5049803;28;20029;-73
2022/04/19 10:33:38;;;;;;;7.15;4.30;;;;;;;33.79;13.58;101584.47;5050990;28;20106;-73
2022/04/19 10:36:14;;;;;;;8.75;5.32;;;;;;;34.37;13.47;101581.59;5050593;28;20108;-73
2022/04/19 10:38:39;;;;;;;7.78;4.55;;;;;;;33.14;14.83;101578.94;5049396;28;20025;-73
2022/04/19 10:41:05;;;;;;;8.07;4.53;;;;;;;33.06;14.30;101576.13;5050605;28;20071;-73
2022/04/19 10:43:30;;;;;;;8.38;4.70;;;;;;;32.94;14.39;101578.13;5050339;28;20393;-73
2022/04/19 10:46:21;;;;;;;10.73;4.78;;;;;;;34.34;13.38;101576.47;5050768;28;20029;-73
2022/04/19 10:49:24;;;;;;;9.68;5.68;;;;;;;34.07;13.78;101576.31;5050052;28;20028;-73
2022/04/19 10:51:52;;;;;;;8.63;4.57;;;;;;;33.80;13.25;101579.91;5050427;28;20051;-73
2022/04/19 10:55:00;;;;;;;9.43;5.30;;;;;;;34.14;13.66;101577.44;5051701;28;20473;-73
2022/04/19 11:00:23;;;;;;;9.18;5.47;;;;;;;33.83;13.32;101585.03;5051402;28;20036;-73
2022/04/19 11:02:57;;;;;;;10.55;5.50;;;;;;;32.03;15.03;101583.69;5049953;28;20024;-72
2022/04/19 11:05:41;;;;;;;10.05;5.65;;;;;;;32.67;14.83;101579.66;5050230;28;20021;-73
2022/04/19 11:08:25;;;;;;;10.63;5.60;;;;;;;33.40;14.51;101578.31;5049563;28;20475;-73
2022/04/19 11:11:02;;;;;;;7.57;4.65;;;;;;;34.01;13.33;101576.94;5050727;28;20021;-73
2022/04/19 11:13:27;;;;;;;11.50;5.68;;;;;;;33.12;14.22;101579.06;5049302;28;20028;-73
2022/04/19 11:16:00;;;;;;;8.60;5.40;;;;;;;33.06;15.15;101576.13;5049732;28;20028;-73
2022/04/19 11:18:27;;;;;;;10.23;5.75;;;;;;;32.89;15.49;101575.84;5051174;28;20025;-73
2022/04/19 11:20:56;;;;;;;9.13;5.32;;;;;;;31.84;15.35;101574.50;5048365;28;20132;-72
2022/04/19 11:23:27;;;;;;;9.85;5.38;;;;;;;32.82;15.20;101574.69;5051094;28;20025;-73
2022/04/19 11:25:53;;;;;;;11.13;6.55;;;;;;;32.67;15.16;101576.09;5050554;28;20116;-73
2022/04/19 11:28:30;;;;;;;12.35;6.20;;;;;;;33.14;14.84;101570.81;5050451;28;20388;-73
2022/04/19 11:30:55;;;;;;;9.63;5.22;;;;;;;32.47;14.01;101559.88;5049469;28;20415;-73
2022/04/19 11:33:22;;;;;;;8.07;5.20;;;;;;;33.44;13.74;101564.34;5051085;28;20017;-73
2022/04/19 11:36:05;;;;;;;6.75;4.05;;;;;;;32.53;13.92;101559.28;5049742;28;20020;-72
2022/04/19 11:38:31;;;;;;;;;;;;;;;32.80;14.25;101561.31;5049670;28;20024;-72
2022/04/19 11:46:44;;;;;;;6.88;4.18;;;;;;;32.17;14.31;101558.97;5050526;28;20039;-73
2022/04/19 11:49:18;;;;;;;5.72;3.03;;;;;;;32.02;13.68;101557.66;5050289;28;20051;-73
2022/04/19 11:51:49;;;;;;;8.20;3.38;;;;;;;32.82;12.69;101553.03;5048938;28;20037;-72
2022/04/19 11:54:32;;;;;;;7.25;4.40;;;;;;;33.28;12.00;101559.53;5049263;28;20040;-72
2022/04/19 11:57:07;;;;;;;;;;;;;;;33.86;11.55;101546.78;5048780;28;20406;-73
2022/04/19 11:59:43;;;;;;;8.57;3.80;;;;;;;33.47;11.96;101547.78;5049005;28;19912;-72